createdAt,value
2023-04-16T00:00:24.314Z,3.33
2023-04-16T00:03:28.050Z,3.30
2023-04-16T00:06:03.926Z,3.27
2023-04-16T00:08:41.113Z,3.23
2023-04-16T00:11:16.613Z,3.19
2023-04-16T00:14:00.696Z,3.15
2023-04-16T00:16:36.978Z,3.10
2023-04-16T00:19:11.512Z,3.05
2023-04-16T00:21:44.342Z,3.00
2023-04-16T00:24:19.868Z,2.95
2023-04-16T00:26:54.544Z,2.88
2023-04-16T00:29:28.934Z,2.84
2023-04-16T00:32:01.477Z,2.78
2023-04-16T00:34:34.353Z,2.74
2023-04-16T00:37:07.496Z,2.69
2023-04-16T00:39:40.185Z,2.64
2023-04-16T00:42:13.169Z,2.61
2023-04-16T00:44:45.899Z,2.57
2023-04-16T00:47:18.687Z,2.55
2023-04-16T00:49:53.706Z,2.53
2023-04-16T00:52:29.201Z,2.51
2023-04-16T00:55:02.442Z,2.49
2023-04-16T00:57:35.658Z,2.50
2023-04-16T01:00:10.099Z,2.52
2023-04-16T01:02:42.850Z,2.52
2023-04-16T01:05:19.116Z,2.51
2023-04-16T01:08:03.139Z,2.49
2023-04-16T01:10:37.465Z,2.47
2023-04-16T01:13:10.205Z,2.47
2023-04-16T01:15:44.094Z,2.47
2023-04-16T01:18:37.909Z,2.47
2023-04-16T01:21:10.605Z,2.47
2023-04-16T01:23:43.041Z,2.46
2023-04-16T01:26:19.526Z,2.42
2023-04-16T01:28:52.153Z,2.39
2023-04-16T01:31:34.789Z,2.35
2023-04-16T01:34:13.318Z,2.30
2023-04-16T01:36:50.157Z,2.26
2023-04-16T01:39:25.522Z,2.22
2023-04-16T01:42:11.233Z,2.21
2023-04-16T01:44:44.733Z,2.23
2023-04-16T01:47:17.702Z,2.25
2023-04-16T01:49:53.407Z,2.28
2023-04-16T01:52:37.266Z,2.30
2023-04-16T01:55:12.017Z,2.33
2023-04-16T01:57:47.536Z,2.33
2023-04-16T02:00:23.210Z,2.33
2023-04-16T02:02:58.368Z,2.32
2023-04-16T02:05:32.998Z,2.29
2023-04-16T02:08:09.536Z,2.27
2023-04-16T02:10:42.397Z,2.28
2023-04-16T02:13:15.564Z,2.28
2023-04-16T02:15:51.760Z,2.27
2023-04-16T02:18:37.460Z,2.25
2023-04-16T02:21:11.004Z,2.22
2023-04-16T02:23:47.638Z,2.18
2023-04-16T02:26:21.176Z,2.13
2023-04-16T02:28:58.927Z,2.09
2023-04-16T02:31:37.596Z,2.08
2023-04-16T02:34:11.002Z,2.04
2023-04-16T02:36:45.502Z,2.02
2023-04-16T02:39:21.703Z,2.00
2023-04-16T02:41:59.534Z,1.99
2023-04-16T02:44:43.018Z,1.98
2023-04-16T02:47:18.789Z,1.98
2023-04-16T02:49:51.486Z,1.98
2023-04-16T02:52:23.746Z,1.98
2023-04-16T02:54:58.921Z,1.99
2023-04-16T02:57:31.491Z,2.02
2023-04-16T03:00:06.337Z,2.07
2023-04-16T03:02:39.324Z,2.11
2023-04-16T03:05:12.689Z,2.15
2023-04-16T03:07:45.514Z,2.20
2023-04-16T03:10:29.502Z,2.27
2023-04-16T03:13:02.640Z,2.30
2023-04-16T03:15:38.093Z,2.33
2023-04-16T03:18:13.006Z,2.35
2023-04-16T03:20:47.474Z,2.37
2023-04-16T03:23:40.486Z,2.37
2023-04-16T03:26:15.130Z,2.35
2023-04-16T03:28:48.208Z,2.34
2023-04-16T03:31:27.369Z,2.34
2023-04-16T03:34:03.949Z,2.34
2023-04-16T03:36:40.092Z,2.33
2023-04-16T03:39:22.492Z,2.31
2023-04-16T03:41:55.083Z,2.29
2023-04-16T03:44:28.006Z,2.29
2023-04-16T03:47:03.335Z,2.29
2023-04-16T03:49:36.175Z,2.29
2023-04-16T03:52:09.181Z,2.30
2023-04-16T03:54:42.032Z,2.33
2023-04-16T03:57:27.223Z,2.35
2023-04-16T04:00:03.746Z,2.37
2023-04-16T04:02:46.631Z,2.38
2023-04-16T04:05:23.182Z,2.40
2023-04-16T04:07:56.110Z,2.44
2023-04-16T04:10:28.607Z,2.51
2023-04-16T04:13:01.662Z,2.61
2023-04-16T04:15:34.480Z,2.75
2023-04-16T04:18:07.613Z,2.88
2023-04-16T04:20:43.373Z,3.03
2023-04-16T04:23:26.336Z,3.20
2023-04-16T04:25:59.588Z,3.36
2023-04-16T04:28:35.209Z,3.52
2023-04-16T04:31:10.674Z,3.69
2023-04-16T04:33:56.386Z,3.81
2023-04-16T04:36:33.927Z,3.87
2023-04-16T04:39:07.464Z,3.90
2023-04-16T04:41:43.987Z,3.96
2023-04-16T04:44:19.344Z,3.99
2023-04-16T04:46:52.341Z,4.04
2023-04-16T04:49:25.324Z,4.11
2023-04-16T04:51:58.485Z,4.19
2023-04-16T04:54:32.411Z,4.26
2023-04-16T04:57:05.148Z,4.36
2023-04-16T04:59:38.022Z,4.54
2023-04-16T05:02:10.861Z,4.79
2023-04-16T05:04:43.656Z,5.00
2023-04-16T05:07:16.438Z,5.17
2023-04-16T05:09:49.346Z,5.30
2023-04-16T05:12:21.787Z,5.47
2023-04-16T05:14:54.408Z,5.64
2023-04-16T05:17:27.044Z,5.84
2023-04-16T05:19:59.846Z,6.07
2023-04-16T05:22:32.141Z,6.20
2023-04-16T05:25:04.682Z,6.21
2023-04-16T05:27:38.539Z,6.22
2023-04-16T05:30:12.476Z,6.33
2023-04-16T05:32:45.239Z,6.48
2023-04-16T05:35:18.081Z,6.62
2023-04-16T05:37:50.815Z,6.78
2023-04-16T05:40:23.810Z,6.97
2023-04-16T05:42:56.473Z,7.17
2023-04-16T05:45:31.513Z,7.37
2023-04-16T05:48:04.240Z,7.60
2023-04-16T05:50:40.537Z,7.83
2023-04-16T05:53:14.359Z,8.05
2023-04-16T05:55:48.634Z,8.27
2023-04-16T05:58:21.151Z,8.48
2023-04-16T06:00:57.363Z,8.64
2023-04-16T06:03:30.519Z,8.83
2023-04-16T06:06:06.204Z,9.04
2023-04-16T06:08:59.105Z,9.25
2023-04-16T06:11:41.828Z,9.47
2023-04-16T06:14:16.245Z,9.67
2023-04-16T06:16:53.697Z,9.91
2023-04-16T06:19:26.129Z,10.11
2023-04-16T06:22:18.755Z,10.33
2023-04-16T06:25:12.472Z,10.52
2023-04-16T06:27:44.965Z,10.66
2023-04-16T06:30:19.921Z,10.79
2023-04-16T06:33:13.354Z,10.95
2023-04-16T06:35:45.809Z,11.12
2023-04-16T06:38:19.992Z,11.27
2023-04-16T06:41:12.798Z,11.40
2023-04-16T06:44:06.541Z,11.52
2023-04-16T06:46:49.176Z,11.63
2023-04-16T06:49:24.283Z,11.72
2023-04-16T06:52:17.316Z,11.84
2023-04-16T06:55:11.464Z,11.98
2023-04-16T06:57:44.390Z,12.09
2023-04-16T07:00:18.038Z,12.20
2023-04-16T07:02:51.442Z,12.30
2023-04-16T07:05:37.516Z,12.44
2023-04-16T07:08:13.924Z,12.57
2023-04-16T07:10:46.835Z,12.70
2023-04-16T07:13:27.806Z,12.81
2023-04-16T07:16:02.990Z,12.92
2023-04-16T07:18:58.347Z,13.00
2023-04-16T07:21:43.883Z,13.07
2023-04-16T07:24:39.690Z,13.00
2023-04-16T07:27:32.479Z,13.05
2023-04-16T07:30:05.399Z,13.13
2023-04-16T07:32:42.059Z,13.22
2023-04-16T07:35:14.838Z,13.28
2023-04-16T07:37:55.053Z,13.35
2023-04-16T07:40:27.984Z,13.44
2023-04-16T07:43:02.016Z,13.45
2023-04-16T07:45:34.842Z,13.45
2023-04-16T07:48:08.056Z,13.51
2023-04-16T07:50:43.639Z,13.63
2023-04-16T07:53:27.009Z,13.75
2023-04-16T07:56:11.146Z,13.86
2023-04-16T07:58:52.950Z,13.93
2023-04-16T08:01:25.602Z,14.00
2023-04-16T08:03:58.666Z,14.08
2023-04-16T08:06:31.628Z,14.17
2023-04-16T08:09:04.805Z,14.24
2023-04-16T08:11:40.095Z,14.29
2023-04-16T08:14:12.793Z,14.24
2023-04-16T08:16:45.005Z,14.27
2023-04-16T08:19:21.027Z,14.38
2023-04-16T08:21:57.427Z,14.49
2023-04-16T08:24:32.785Z,14.59
2023-04-16T08:27:17.908Z,14.68
2023-04-16T08:29:57.513Z,14.76
2023-04-16T08:32:33.608Z,14.88
2023-04-16T08:35:14.748Z,15.01
2023-04-16T08:37:47.402Z,15.09
2023-04-16T08:40:22.443Z,15.16
2023-04-16T08:43:17.269Z,15.30
2023-04-16T08:45:57.523Z,15.45
2023-04-16T08:48:34.236Z,15.58
2023-04-16T08:51:09.345Z,15.50
2023-04-16T08:53:50.646Z,15.52
2023-04-16T08:56:25.053Z,15.48
2023-04-16T08:59:02.335Z,15.50
2023-04-16T09:01:36.624Z,15.57
2023-04-16T09:04:10.435Z,15.69
2023-04-16T09:06:44.926Z,15.72
2023-04-16T09:09:22.139Z,15.77
2023-04-16T09:11:57.495Z,15.86
2023-04-16T09:14:30.465Z,16.02
2023-04-16T09:17:04.982Z,16.07
2023-04-16T09:19:37.514Z,16.22
2023-04-16T09:22:11.830Z,16.34
2023-04-16T09:24:46.782Z,16.55
2023-04-16T09:27:20.376Z,16.67
2023-04-16T09:29:53.040Z,16.87
2023-04-16T09:32:30.184Z,17.14
2023-04-16T09:35:05.981Z,17.30
2023-04-16T09:37:38.712Z,17.23
2023-04-16T09:40:17.318Z,17.32
2023-04-16T09:42:58.137Z,17.51
2023-04-16T09:45:49.048Z,17.71
2023-04-16T09:48:46.906Z,17.83
2023-04-16T09:51:22.484Z,18.01
2023-04-16T09:54:00.929Z,18.20
2023-04-16T09:56:45.716Z,18.38
2023-04-16T09:59:22.501Z,18.50
2023-04-16T10:02:15.567Z,18.60
2023-04-16T10:04:53.947Z,18.85
2023-04-16T10:07:31.700Z,19.11
2023-04-16T10:10:03.736Z,19.34
2023-04-16T10:12:39.689Z,19.36
2023-04-16T10:15:14.163Z,19.37
2023-04-16T10:17:46.918Z,19.42
2023-04-16T10:20:19.602Z,19.38
2023-04-16T10:22:52.249Z,19.18
2023-04-16T10:25:26.276Z,19.02
2023-04-16T10:28:10.709Z,19.01
2023-04-16T10:30:48.357Z,19.05
2023-04-16T10:33:23.497Z,19.20
2023-04-16T10:36:11.044Z,19.31
2023-04-16T10:38:54.814Z,19.31
2023-04-16T10:41:28.521Z,19.17
2023-04-16T10:44:10.777Z,19.10
2023-04-16T10:46:44.299Z,19.06
2023-04-16T10:49:19.281Z,19.05
2023-04-16T10:51:59.672Z,19.10
2023-04-16T10:54:36.749Z,19.11
2023-04-16T10:57:10.502Z,19.20
2023-04-16T10:59:53.320Z,19.24
2023-04-16T11:02:32.835Z,19.10
2023-04-16T11:05:06.708Z,18.94
2023-04-16T11:07:39.580Z,18.76
2023-04-16T11:10:16.048Z,18.65
2023-04-16T11:12:49.730Z,18.68
2023-04-16T11:15:30.937Z,18.76
2023-04-16T11:18:04.237Z,18.87
2023-04-16T11:20:44.420Z,19.02
2023-04-16T11:23:18.602Z,19.05
2023-04-16T11:25:57.441Z,19.05
2023-04-16T11:28:40.693Z,19.03
2023-04-16T11:31:21.235Z,19.01
2023-04-16T11:33:54.425Z,19.08
2023-04-16T11:36:27.924Z,19.22
2023-04-16T11:39:06.726Z,19.37
2023-04-16T11:41:46.041Z,19.48
2023-04-16T11:44:23.591Z,19.48
2023-04-16T11:46:56.695Z,19.52
2023-04-16T11:49:32.179Z,19.54
2023-04-16T11:52:05.087Z,19.48
2023-04-16T11:54:39.164Z,19.48
2023-04-16T11:57:15.316Z,19.50
2023-04-16T12:00:02.229Z,19.56
2023-04-16T12:02:54.953Z,19.75
2023-04-16T12:05:32.392Z,19.86
2023-04-16T12:08:06.991Z,20.01
2023-04-16T12:10:57.416Z,20.12
2023-04-16T12:13:30.553Z,20.26
2023-04-16T12:16:03.133Z,20.42
2023-04-16T12:18:36.037Z,20.57
2023-04-16T12:21:09.165Z,20.76
2023-04-16T12:23:42.708Z,20.89
2023-04-16T12:26:15.643Z,20.91
2023-04-16T12:29:22.701Z,20.87
2023-04-16T12:31:56.338Z,20.80
2023-04-16T12:34:53.226Z,20.83
2023-04-16T12:37:31.060Z,20.81
2023-04-16T12:40:07.404Z,20.70
2023-04-16T12:42:49.250Z,20.52
2023-04-16T12:45:22.303Z,20.37
2023-04-16T12:47:57.465Z,20.16
2023-04-16T12:50:32.650Z,19.97
2023-04-16T12:53:05.477Z,19.99
2023-04-16T12:55:38.258Z,20.02
2023-04-16T12:58:12.592Z,20.01
2023-04-16T13:00:47.201Z,19.88
2023-04-16T13:03:21.194Z,19.69
2023-04-16T13:05:53.820Z,19.72
2023-04-16T13:08:37.487Z,19.79
2023-04-16T13:11:14.282Z,19.85
2023-04-16T13:13:59.899Z,19.92
2023-04-16T13:16:52.483Z,20.00
2023-04-16T13:19:35.746Z,20.10
2023-04-16T13:22:21.181Z,20.20
2023-04-16T13:25:16.427Z,20.17
2023-04-16T13:27:48.956Z,20.17
2023-04-16T13:30:43.390Z,20.16
2023-04-16T13:33:36.660Z,20.12
2023-04-16T13:36:32.473Z,19.94
2023-04-16T13:39:11.495Z,19.87
2023-04-16T13:42:04.401Z,19.84
2023-04-16T13:44:54.233Z,19.83
2023-04-16T13:47:26.768Z,19.76
2023-04-16T13:50:20.851Z,19.66
2023-04-16T13:53:13.619Z,19.47
2023-04-16T13:56:11.154Z,19.30
2023-04-16T13:58:51.257Z,19.21
2023-04-16T14:01:23.901Z,19.21
2023-04-16T14:04:02.037Z,19.29
2023-04-16T14:06:54.901Z,19.31
2023-04-16T14:09:47.878Z,19.32
2023-04-16T14:12:41.002Z,19.28
2023-04-16T14:15:17.072Z,19.26
2023-04-16T14:17:54.438Z,19.33
2023-04-16T14:20:47.188Z,19.30
2023-04-16T14:23:28.372Z,19.30
2023-04-16T14:26:06.285Z,19.30
2023-04-16T14:28:58.985Z,19.23
2023-04-16T14:31:41.698Z,19.21
2023-04-16T14:34:18.367Z,19.28
2023-04-16T14:36:54.055Z,19.31
2023-04-16T14:39:47.134Z,19.42
2023-04-16T14:42:28.525Z,19.56
2023-04-16T14:45:03.977Z,19.62
2023-04-16T14:47:58.536Z,19.68
2023-04-16T14:50:51.790Z,19.71
2023-04-16T14:53:46.761Z,19.73
2023-04-16T14:56:39.451Z,19.78
2023-04-16T14:59:25.990Z,19.84
2023-04-16T15:02:10.795Z,19.83
2023-04-16T15:04:50.784Z,19.84
2023-04-16T15:07:44.719Z,19.74
2023-04-16T15:10:20.943Z,19.59
2023-04-16T15:13:13.811Z,19.46
2023-04-16T15:16:01.028Z,19.27
2023-04-16T15:18:53.995Z,19.20
2023-04-16T15:21:31.725Z,19.24
2023-04-16T15:24:22.982Z,19.30
2023-04-16T15:26:56.270Z,19.32
2023-04-16T15:29:38.028Z,19.30
2023-04-16T15:32:20.886Z,19.15
2023-04-16T15:34:56.518Z,18.94
2023-04-16T15:37:39.752Z,18.76
2023-04-16T15:40:32.958Z,18.57
2023-04-16T15:43:09.115Z,18.38
2023-04-16T15:46:02.404Z,18.09
2023-04-16T15:48:34.872Z,17.80
2023-04-16T15:51:09.087Z,17.63
2023-04-16T15:53:52.019Z,17.49
2023-04-16T15:56:28.650Z,17.33
2023-04-16T15:59:04.511Z,17.18
2023-04-16T16:01:57.715Z,17.00
2023-04-16T16:04:49.884Z,16.82
2023-04-16T16:07:36.793Z,16.65
2023-04-16T16:10:29.825Z,16.50
2023-04-16T16:13:22.667Z,16.35
2023-04-16T16:16:08.846Z,16.20
2023-04-16T16:18:42.198Z,16.06
2023-04-16T16:21:35.070Z,15.92
2023-04-16T16:24:24.506Z,15.76
2023-04-16T16:27:18.574Z,15.62
2023-04-16T16:29:54.489Z,15.52
2023-04-16T16:32:47.352Z,15.41
2023-04-16T16:35:32.578Z,15.31
2023-04-16T16:38:07.790Z,15.22
2023-04-16T16:40:43.783Z,15.13
2023-04-16T16:43:18.668Z,15.03
2023-04-16T16:45:51.151Z,14.92
2023-04-16T16:48:24.030Z,14.82
2023-04-16T16:50:56.536Z,14.71
2023-04-16T16:53:29.445Z,14.63
2023-04-16T16:56:02.112Z,14.54
2023-04-16T16:58:35.142Z,14.43
2023-04-16T17:01:07.860Z,14.32
2023-04-16T17:03:40.620Z,14.23
2023-04-16T17:06:13.397Z,14.11
2023-04-16T17:08:47.621Z,14.01
2023-04-16T17:11:20.124Z,13.89
2023-04-16T17:13:52.584Z,13.76
2023-04-16T17:16:34.715Z,13.64
2023-04-16T17:19:20.890Z,13.53
2023-04-16T17:21:55.117Z,13.41
2023-04-16T17:24:27.630Z,13.29
2023-04-16T17:27:00.203Z,13.18
2023-04-16T17:29:35.619Z,13.07
2023-04-16T17:32:10.694Z,12.95
2023-04-16T17:34:44.132Z,12.83
2023-04-16T17:37:16.581Z,12.73
2023-04-16T17:40:12.887Z,12.63
2023-04-16T17:43:06.116Z,12.52
2023-04-16T17:45:59.630Z,12.42
2023-04-16T17:48:52.392Z,12.32
2023-04-16T17:51:47.191Z,12.23
2023-04-16T17:54:29.691Z,12.14
2023-04-16T17:57:05.220Z,12.04
2023-04-16T17:59:41.101Z,11.95
2023-04-16T18:02:14.122Z,11.86
2023-04-16T18:04:56.288Z,11.75
2023-04-16T18:07:49.429Z,11.66
2023-04-16T18:10:31.543Z,11.57
2023-04-16T18:13:06.833Z,11.48
2023-04-16T18:15:40.234Z,11.39
2023-04-16T18:18:33.865Z,11.31
2023-04-16T18:21:19.030Z,11.23
2023-04-16T18:23:51.911Z,11.16
2023-04-16T18:26:40.819Z,11.07
2023-04-16T18:29:14.206Z,10.96
2023-04-16T18:31:47.416Z,10.86
2023-04-16T18:34:20.869Z,10.77
2023-04-16T18:36:55.677Z,10.66
2023-04-16T18:39:28.464Z,10.56
2023-04-16T18:42:01.519Z,10.46
2023-04-16T18:44:34.089Z,10.36
2023-04-16T18:47:07.253Z,10.26
2023-04-16T18:49:41.420Z,10.16
2023-04-16T18:52:14.087Z,10.08
2023-04-16T18:54:46.895Z,10.02
2023-04-16T18:57:19.320Z,9.97
2023-04-16T18:59:51.717Z,9.93
2023-04-16T19:02:24.660Z,9.90
2023-04-16T19:04:57.716Z,9.89
2023-04-16T19:07:30.766Z,9.88
2023-04-16T19:10:03.597Z,9.87
2023-04-16T19:12:39.360Z,9.85
2023-04-16T19:15:14.963Z,9.82
2023-04-16T19:17:47.826Z,9.79
2023-04-16T19:20:23.479Z,9.75
2023-04-16T19:22:56.571Z,9.72
2023-04-16T19:25:31.560Z,9.68
2023-04-16T19:28:04.242Z,9.66
2023-04-16T19:30:57.281Z,9.66
2023-04-16T19:33:30.039Z,9.68
2023-04-16T19:36:04.993Z,9.71
2023-04-16T19:38:39.127Z,9.76
2023-04-16T19:41:11.781Z,9.83
2023-04-16T19:43:44.754Z,9.91
2023-04-16T19:46:18.126Z,9.98
2023-04-16T19:48:50.621Z,10.04
2023-04-16T19:51:23.213Z,10.09
2023-04-16T19:53:58.940Z,10.14
2023-04-16T19:56:31.421Z,10.14
2023-04-16T19:59:07.026Z,10.12
2023-04-16T20:01:40.847Z,10.10
2023-04-16T20:04:13.444Z,10.06
2023-04-16T20:06:46.180Z,10.01
2023-04-16T20:09:21.739Z,9.98
2023-04-16T20:11:54.241Z,9.95
2023-04-16T20:14:26.721Z,9.93
2023-04-16T20:17:01.957Z,9.90
2023-04-16T20:19:38.397Z,9.90
2023-04-16T20:22:10.892Z,9.91
2023-04-16T20:24:47.858Z,9.91
2023-04-16T20:27:21.190Z,9.89
2023-04-16T20:29:54.104Z,9.86
2023-04-16T20:32:28.046Z,9.84
2023-04-16T20:35:02.086Z,9.82
2023-04-16T20:37:38.747Z,9.83
2023-04-16T20:40:16.550Z,9.84
2023-04-16T20:42:52.207Z,9.86
2023-04-16T20:45:25.526Z,9.88
2023-04-16T20:47:58.000Z,9.91
2023-04-16T20:50:30.568Z,9.92
2023-04-16T20:53:06.090Z,9.91
2023-04-16T20:55:41.034Z,9.86
2023-04-16T20:58:13.702Z,9.74
2023-04-16T21:00:52.426Z,9.62
2023-04-16T21:03:25.207Z,9.53
2023-04-16T21:05:59.471Z,9.49
2023-04-16T21:08:32.784Z,9.47
2023-04-16T21:11:05.732Z,9.45
2023-04-16T21:13:38.075Z,9.43
2023-04-16T21:16:12.548Z,9.39
2023-04-16T21:18:47.360Z,9.33
2023-04-16T21:21:20.225Z,9.26
2023-04-16T21:23:53.046Z,9.19
2023-04-16T21:26:25.611Z,9.14
2023-04-16T21:28:58.094Z,9.10
2023-04-16T21:31:32.863Z,9.10
2023-04-16T21:34:08.124Z,9.11
2023-04-16T21:36:40.825Z,9.13
2023-04-16T21:39:14.302Z,9.16
2023-04-16T21:41:50.942Z,9.20
2023-04-16T21:44:23.763Z,9.21
2023-04-16T21:46:56.445Z,9.22
2023-04-16T21:49:32.223Z,9.19
2023-04-16T21:52:05.212Z,9.06
2023-04-16T21:54:38.677Z,8.84
2023-04-16T21:57:11.883Z,8.70
2023-04-16T21:59:44.391Z,8.64
2023-04-16T22:02:17.067Z,8.62
2023-04-16T22:04:50.472Z,8.63
2023-04-16T22:07:24.107Z,8.66
2023-04-16T22:09:56.845Z,8.68
2023-04-16T22:12:29.410Z,8.68
2023-04-16T22:15:03.123Z,8.64
2023-04-16T22:17:36.439Z,8.55
2023-04-16T22:20:13.387Z,8.49
2023-04-16T22:22:47.927Z,8.46
2023-04-16T22:25:20.465Z,8.43
2023-04-16T22:27:53.874Z,8.41
2023-04-16T22:30:29.840Z,8.40
2023-04-16T22:33:21.338Z,8.40
2023-04-16T22:36:14.189Z,8.36
2023-04-16T22:39:01.114Z,8.30
2023-04-16T22:41:53.829Z,8.21
2023-04-16T22:44:45.513Z,8.13
2023-04-16T22:47:38.402Z,8.09
2023-04-16T22:50:32.483Z,8.06
2023-04-16T22:53:25.583Z,8.04
2023-04-16T22:56:18.599Z,8.04
2023-04-16T22:59:11.455Z,8.05
2023-04-16T23:01:47.400Z,8.08
2023-04-16T23:04:38.781Z,8.10
2023-04-16T23:07:31.775Z,8.10
2023-04-16T23:10:24.554Z,8.09
2023-04-16T23:13:17.686Z,8.11
2023-04-16T23:16:10.878Z,8.14
2023-04-16T23:19:03.487Z,8.21
2023-04-16T23:21:56.269Z,8.31
2023-04-16T23:24:49.134Z,8.41
2023-04-16T23:27:41.988Z,8.53
2023-04-16T23:30:26.029Z,8.63
2023-04-16T23:33:18.909Z,8.73
2023-04-16T23:36:01.707Z,8.84
2023-04-16T23:38:54.367Z,8.99
2023-04-16T23:41:47.200Z,9.12
2023-04-16T23:44:39.825Z,9.25
2023-04-16T23:47:32.808Z,9.33
2023-04-16T23:50:25.762Z,9.35
2023-04-16T23:53:18.569Z,9.34
2023-04-16T23:56:04.169Z,9.36
2023-04-16T23:58:46.687Z,9.37
